vendredi 25 janvier 2019

Du vent...et des oisaux

Ils avaient fort à faire jeudi, les pilotes, avec la forte tramontane à Perpignan.
Petite démo avec HOP, de Paris Orly et Ryanair, de Marrakech

 LFMP 240900Z AUTO 31031G45KT CAVOK 04/M04 Q1004 NOSIG


 

Ca ne les empêche pas de garder le sourire


  ...enfin, pas tous 😉







Aucun commentaire:

Enregistrer un commentaire

Bonjour, vos commentaires nous intéressent. Ils sont publiés, après un examen express par le comité de censure ;-)